sensor_id;sensor_type;location;lat;lon;timestamp;temperature;humidity
32749;DHT22;19119;52.474;13.710;2023-07-16T00:00:26;21.70;99.90
32749;DHT22;19119;52.474;13.710;2023-07-16T00:02:51;21.70;99.90
32749;DHT22;19119;52.474;13.710;2023-07-16T00:05:17;21.70;99.90
32749;DHT22;19119;52.474;13.710;2023-07-16T00:07:42;21.70;99.90
32749;DHT22;19119;52.474;13.710;2023-07-16T00:10:08;21.80;99.90
32749;DHT22;19119;52.474;13.710;2023-07-16T00:12:34;21.70;99.90
32749;DHT22;19119;52.474;13.710;2023-07-16T00:14:59;21.60;99.90
32749;DHT22;19119;52.474;13.710;2023-07-16T00:17:25;21.70;99.90
32749;DHT22;19119;52.474;13.710;2023-07-16T00:19:50;21.70;99.90
32749;DHT22;19119;52.474;13.710;2023-07-16T00:22:16;21.50;99.90
32749;DHT22;19119;52.474;13.710;2023-07-16T00:24:41;21.60;99.90
32749;DHT22;19119;52.474;13.710;2023-07-16T00:27:07;21.60;99.90
32749;DHT22;19119;52.474;13.710;2023-07-16T00:29:32;21.60;99.90
32749;DHT22;19119;52.474;13.710;2023-07-16T00:31:58;21.50;99.90
32749;DHT22;19119;52.474;13.710;2023-07-16T00:34:23;21.50;99.90
32749;DHT22;19119;52.474;13.710;2023-07-16T00:36:49;21.50;99.90
32749;DHT22;19119;52.474;13.710;2023-07-16T00:39:14;21.50;99.90
32749;DHT22;19119;52.474;13.710;2023-07-16T00:41:40;21.50;99.90
32749;DHT22;19119;52.474;13.710;2023-07-16T00:44:05;21.50;99.90
32749;DHT22;19119;52.474;13.710;2023-07-16T00:46:31;21.40;99.90
32749;DHT22;19119;52.474;13.710;2023-07-16T00:48:56;21.30;99.90
32749;DHT22;19119;52.474;13.710;2023-07-16T00:51:24;21.30;99.90
32749;DHT22;19119;52.474;13.710;2023-07-16T00:53:51;21.30;99.90
32749;DHT22;19119;52.474;13.710;2023-07-16T00:56:17;21.20;99.90
32749;DHT22;19119;52.474;13.710;2023-07-16T00:58:46;21.30;99.90
32749;DHT22;19119;52.474;13.710;2023-07-16T01:01:11;21.20;99.90
32749;DHT22;19119;52.474;13.710;2023-07-16T01:03:37;21.10;99.90
32749;DHT22;19119;52.474;13.710;2023-07-16T01:06:10;21.10;99.90
32749;DHT22;19119;52.474;13.710;2023-07-16T01:08:45;21.10;99.90
32749;DHT22;19119;52.474;13.710;2023-07-16T01:11:12;21.10;99.90
32749;DHT22;19119;52.474;13.710;2023-07-16T01:13:39;21.00;99.90
32749;DHT22;19119;52.474;13.710;2023-07-16T01:16:05;20.90;99.90
32749;DHT22;19119;52.474;13.710;2023-07-16T01:18:31;20.80;99.90
32749;DHT22;19119;52.474;13.710;2023-07-16T01:20:57;20.80;99.90
32749;DHT22;19119;52.474;13.710;2023-07-16T01:23:27;20.70;99.90
32749;DHT22;19119;52.474;13.710;2023-07-16T01:26:24;20.80;99.90
32749;DHT22;19119;52.474;13.710;2023-07-16T01:29:09;20.80;99.90
32749;DHT22;19119;52.474;13.710;2023-07-16T01:31:40;20.70;99.90
32749;DHT22;19119;52.474;13.710;2023-07-16T01:34:06;20.80;99.90
32749;DHT22;19119;52.474;13.710;2023-07-16T01:36:33;20.80;99.90
32749;DHT22;19119;52.474;13.710;2023-07-16T01:39:00;20.80;99.90
32749;DHT22;19119;52.474;13.710;2023-07-16T01:41:26;20.90;99.90
32749;DHT22;19119;52.474;13.710;2023-07-16T01:43:52;20.90;99.90
32749;DHT22;19119;52.474;13.710;2023-07-16T01:46:18;21.00;99.90
32749;DHT22;19119;52.474;13.710;2023-07-16T01:48:44;21.00;99.90
32749;DHT22;19119;52.474;13.710;2023-07-16T01:51:09;21.10;99.90
32749;DHT22;19119;52.474;13.710;2023-07-16T01:53:36;21.10;99.90
32749;DHT22;19119;52.474;13.710;2023-07-16T01:56:02;21.00;99.90
32749;DHT22;19119;52.474;13.710;2023-07-16T01:58:28;21.10;99.90
32749;DHT22;19119;52.474;13.710;2023-07-16T02:00:53;21.10;99.90
32749;DHT22;19119;52.474;13.710;2023-07-16T02:03:19;21.10;99.90
32749;DHT22;19119;52.474;13.710;2023-07-16T02:05:44;21.10;99.90
32749;DHT22;19119;52.474;13.710;2023-07-16T02:08:10;21.10;99.90
32749;DHT22;19119;52.474;13.710;2023-07-16T02:10:35;21.10;99.90
32749;DHT22;19119;52.474;13.710;2023-07-16T02:13:01;21.10;99.90
32749;DHT22;19119;52.474;13.710;2023-07-16T02:15:26;21.10;99.90
32749;DHT22;19119;52.474;13.710;2023-07-16T02:17:52;21.10;99.90
32749;DHT22;19119;52.474;13.710;2023-07-16T02:20:17;21.10;99.90
32749;DHT22;19119;52.474;13.710;2023-07-16T02:22:43;21.10;99.90
32749;DHT22;19119;52.474;13.710;2023-07-16T02:25:09;21.10;99.90
32749;DHT22;19119;52.474;13.710;2023-07-16T02:27:34;21.20;99.90
32749;DHT22;19119;52.474;13.710;2023-07-16T02:30:00;21.20;99.90
32749;DHT22;19119;52.474;13.710;2023-07-16T02:32:25;21.20;99.90
32749;DHT22;19119;52.474;13.710;2023-07-16T02:34:51;21.20;99.90
32749;DHT22;19119;52.474;13.710;2023-07-16T02:37:17;21.20;99.90
32749;DHT22;19119;52.474;13.710;2023-07-16T02:39:45;21.20;99.90
32749;DHT22;19119;52.474;13.710;2023-07-16T02:42:13;21.10;99.90
32749;DHT22;19119;52.474;13.710;2023-07-16T02:44:39;21.10;99.90
32749;DHT22;19119;52.474;13.710;2023-07-16T02:47:10;21.10;99.90
32749;DHT22;19119;52.474;13.710;2023-07-16T02:49:36;21.00;99.90
32749;DHT22;19119;52.474;13.710;2023-07-16T02:52:01;21.00;99.90
32749;DHT22;19119;52.474;13.710;2023-07-16T02:54:27;21.00;99.90
32749;DHT22;19119;52.474;13.710;2023-07-16T02:56:52;20.90;99.90
32749;DHT22;19119;52.474;13.710;2023-07-16T02:59:18;20.90;99.90
32749;DHT22;19119;52.474;13.710;2023-07-16T03:01:43;21.00;99.90
32749;DHT22;19119;52.474;13.710;2023-07-16T03:04:09;20.90;99.90
32749;DHT22;19119;52.474;13.710;2023-07-16T03:06:34;20.90;99.90
32749;DHT22;19119;52.474;13.710;2023-07-16T03:09:00;20.70;99.90
32749;DHT22;19119;52.474;13.710;2023-07-16T03:11:25;20.70;99.90
32749;DHT22;19119;52.474;13.710;2023-07-16T03:13:51;20.70;99.90
32749;DHT22;19119;52.474;13.710;2023-07-16T03:16:16;20.70;99.90
32749;DHT22;19119;52.474;13.710;2023-07-16T03:18:42;20.60;99.90
32749;DHT22;19119;52.474;13.710;2023-07-16T03:21:07;20.70;99.90
32749;DHT22;19119;52.474;13.710;2023-07-16T03:23:33;20.70;99.90
32749;DHT22;19119;52.474;13.710;2023-07-16T03:25:58;20.70;99.90
32749;DHT22;19119;52.474;13.710;2023-07-16T03:28:24;20.60;99.90
32749;DHT22;19119;52.474;13.710;2023-07-16T03:30:50;20.50;99.90
32749;DHT22;19119;52.474;13.710;2023-07-16T03:33:16;20.60;99.90
32749;DHT22;19119;52.474;13.710;2023-07-16T03:35:43;20.60;99.90
32749;DHT22;19119;52.474;13.710;2023-07-16T03:38:10;20.60;99.90
32749;DHT22;19119;52.474;13.710;2023-07-16T03:40:35;20.50;99.90
32749;DHT22;19119;52.474;13.710;2023-07-16T03:43:01;20.60;99.90
32749;DHT22;19119;52.474;13.710;2023-07-16T03:45:26;20.60;99.90
32749;DHT22;19119;52.474;13.710;2023-07-16T03:47:52;20.60;99.90
32749;DHT22;19119;52.474;13.710;2023-07-16T03:50:17;20.50;99.90
32749;DHT22;19119;52.474;13.710;2023-07-16T03:52:44;20.40;99.90
32749;DHT22;19119;52.474;13.710;2023-07-16T03:55:10;20.50;99.90
32749;DHT22;19119;52.474;13.710;2023-07-16T03:57:35;20.50;99.90
32749;DHT22;19119;52.474;13.710;2023-07-16T04:00:02;20.50;99.90
32749;DHT22;19119;52.474;13.710;2023-07-16T04:02:29;20.50;99.90
32749;DHT22;19119;52.474;13.710;2023-07-16T04:04:55;20.50;99.90
32749;DHT22;19119;52.474;13.710;2023-07-16T04:07:20;20.40;99.90
32749;DHT22;19119;52.474;13.710;2023-07-16T04:09:47;20.40;99.90
32749;DHT22;19119;52.474;13.710;2023-07-16T04:12:12;20.40;99.90
32749;DHT22;19119;52.474;13.710;2023-07-16T04:14:38;20.40;99.90
32749;DHT22;19119;52.474;13.710;2023-07-16T04:17:04;20.40;99.90
32749;DHT22;19119;52.474;13.710;2023-07-16T04:19:29;20.40;99.90
32749;DHT22;19119;52.474;13.710;2023-07-16T04:21:55;20.40;99.90
32749;DHT22;19119;52.474;13.710;2023-07-16T04:24:20;20.50;99.90
32749;DHT22;19119;52.474;13.710;2023-07-16T04:26:46;20.50;99.90
32749;DHT22;19119;52.474;13.710;2023-07-16T04:29:11;20.50;99.90
32749;DHT22;19119;52.474;13.710;2023-07-16T04:31:37;20.50;99.90
32749;DHT22;19119;52.474;13.710;2023-07-16T04:34:02;20.50;99.90
32749;DHT22;19119;52.474;13.710;2023-07-16T04:36:28;20.50;99.90
32749;DHT22;19119;52.474;13.710;2023-07-16T04:38:53;20.60;99.90
32749;DHT22;19119;52.474;13.710;2023-07-16T04:41:19;20.60;99.90
32749;DHT22;19119;52.474;13.710;2023-07-16T04:43:44;20.60;99.90
32749;DHT22;19119;52.474;13.710;2023-07-16T04:46:10;20.60;99.90
32749;DHT22;19119;52.474;13.710;2023-07-16T04:48:37;20.60;99.90
32749;DHT22;19119;52.474;13.710;2023-07-16T04:51:02;20.50;99.90
32749;DHT22;19119;52.474;13.710;2023-07-16T04:53:28;20.50;99.90
32749;DHT22;19119;52.474;13.710;2023-07-16T04:55:53;20.60;99.90
32749;DHT22;19119;52.474;13.710;2023-07-16T04:58:19;20.60;99.90
32749;DHT22;19119;52.474;13.710;2023-07-16T05:00:45;20.50;99.90
32749;DHT22;19119;52.474;13.710;2023-07-16T05:03:11;20.50;99.90
32749;DHT22;19119;52.474;13.710;2023-07-16T05:05:36;20.50;99.90
32749;DHT22;19119;52.474;13.710;2023-07-16T05:08:02;20.40;99.90
32749;DHT22;19119;52.474;13.710;2023-07-16T05:10:28;20.50;99.90
32749;DHT22;19119;52.474;13.710;2023-07-16T05:12:53;20.50;99.90
32749;DHT22;19119;52.474;13.710;2023-07-16T05:15:19;20.60;99.90
32749;DHT22;19119;52.474;13.710;2023-07-16T05:17:45;20.50;99.90
32749;DHT22;19119;52.474;13.710;2023-07-16T05:20:11;20.50;99.90
32749;DHT22;19119;52.474;13.710;2023-07-16T05:22:37;20.50;99.90
32749;DHT22;19119;52.474;13.710;2023-07-16T05:25:03;20.50;99.90
32749;DHT22;19119;52.474;13.710;2023-07-16T05:27:29;20.60;99.90
32749;DHT22;19119;52.474;13.710;2023-07-16T05:29:54;20.60;99.90
32749;DHT22;19119;52.474;13.710;2023-07-16T05:32:21;20.70;99.90
32749;DHT22;19119;52.474;13.710;2023-07-16T05:34:46;20.90;99.90
32749;DHT22;19119;52.474;13.710;2023-07-16T05:37:12;21.00;99.90
32749;DHT22;19119;52.474;13.710;2023-07-16T05:39:37;21.30;99.90
32749;DHT22;19119;52.474;13.710;2023-07-16T05:42:03;21.50;99.90
32749;DHT22;19119;52.474;13.710;2023-07-16T05:44:29;21.30;99.90
32749;DHT22;19119;52.474;13.710;2023-07-16T05:46:54;21.70;99.90
32749;DHT22;19119;52.474;13.710;2023-07-16T05:49:20;22.10;99.90
32749;DHT22;19119;52.474;13.710;2023-07-16T05:51:45;22.40;99.90
32749;DHT22;19119;52.474;13.710;2023-07-16T05:54:11;22.70;99.90
32749;DHT22;19119;52.474;13.710;2023-07-16T05:56:36;22.70;99.90
32749;DHT22;19119;52.474;13.710;2023-07-16T05:59:02;22.70;99.90
32749;DHT22;19119;52.474;13.710;2023-07-16T06:01:27;22.70;99.90
32749;DHT22;19119;52.474;13.710;2023-07-16T06:03:53;22.50;99.90
32749;DHT22;19119;52.474;13.710;2023-07-16T06:06:19;22.30;99.90
32749;DHT22;19119;52.474;13.710;2023-07-16T06:08:45;22.60;99.90
32749;DHT22;19119;52.474;13.710;2023-07-16T06:11:12;23.00;99.90
32749;DHT22;19119;52.474;13.710;2023-07-16T06:13:37;23.50;99.90
32749;DHT22;19119;52.474;13.710;2023-07-16T06:16:03;23.80;99.90
32749;DHT22;19119;52.474;13.710;2023-07-16T06:18:29;23.40;99.90
32749;DHT22;19119;52.474;13.710;2023-07-16T06:20:54;23.50;99.90
32749;DHT22;19119;52.474;13.710;2023-07-16T06:23:20;23.70;99.90
32749;DHT22;19119;52.474;13.710;2023-07-16T06:25:46;24.10;99.90
32749;DHT22;19119;52.474;13.710;2023-07-16T06:28:15;23.90;99.90
32749;DHT22;19119;52.474;13.710;2023-07-16T06:30:41;23.80;99.90
32749;DHT22;19119;52.474;13.710;2023-07-16T06:33:07;24.00;99.90
32749;DHT22;19119;52.474;13.710;2023-07-16T06:35:32;24.50;99.90
32749;DHT22;19119;52.474;13.710;2023-07-16T06:37:58;24.70;99.90
32749;DHT22;19119;52.474;13.710;2023-07-16T06:40:24;25.10;99.90
32749;DHT22;19119;52.474;13.710;2023-07-16T06:42:50;25.00;99.90
32749;DHT22;19119;52.474;13.710;2023-07-16T06:45:17;25.00;99.90
32749;DHT22;19119;52.474;13.710;2023-07-16T06:47:43;25.00;99.90
32749;DHT22;19119;52.474;13.710;2023-07-16T06:50:09;25.00;99.90
32749;DHT22;19119;52.474;13.710;2023-07-16T06:52:34;25.10;99.90
32749;DHT22;19119;52.474;13.710;2023-07-16T06:55:00;24.90;99.90
32749;DHT22;19119;52.474;13.710;2023-07-16T06:57:26;25.10;99.90
32749;DHT22;19119;52.474;13.710;2023-07-16T06:59:51;25.10;99.90
32749;DHT22;19119;52.474;13.710;2023-07-16T07:02:18;25.30;99.90
32749;DHT22;19119;52.474;13.710;2023-07-16T07:04:44;25.10;99.90
32749;DHT22;19119;52.474;13.710;2023-07-16T07:07:09;25.20;99.90
32749;DHT22;19119;52.474;13.710;2023-07-16T07:09:35;25.30;99.90
32749;DHT22;19119;52.474;13.710;2023-07-16T07:12:01;25.60;99.90
32749;DHT22;19119;52.474;13.710;2023-07-16T07:14:26;25.20;99.90
32749;DHT22;19119;52.474;13.710;2023-07-16T07:16:52;25.60;99.90
32749;DHT22;19119;52.474;13.710;2023-07-16T07:19:17;25.70;99.90
32749;DHT22;19119;52.474;13.710;2023-07-16T07:21:43;26.00;99.90
32749;DHT22;19119;52.474;13.710;2023-07-16T07:24:09;26.00;99.90
32749;DHT22;19119;52.474;13.710;2023-07-16T07:26:34;26.20;99.90
32749;DHT22;19119;52.474;13.710;2023-07-16T07:29:00;26.10;99.90
32749;DHT22;19119;52.474;13.710;2023-07-16T07:31:25;25.80;99.90
32749;DHT22;19119;52.474;13.710;2023-07-16T07:33:51;25.80;99.90
32749;DHT22;19119;52.474;13.710;2023-07-16T07:36:19;25.60;99.90
32749;DHT22;19119;52.474;13.710;2023-07-16T07:38:44;25.90;99.90
32749;DHT22;19119;52.474;13.710;2023-07-16T07:41:10;25.90;99.90
32749;DHT22;19119;52.474;13.710;2023-07-16T07:43:36;26.00;99.90
32749;DHT22;19119;52.474;13.710;2023-07-16T07:46:01;26.20;99.90
32749;DHT22;19119;52.474;13.710;2023-07-16T07:48:27;26.40;99.90
32749;DHT22;19119;52.474;13.710;2023-07-16T07:50:53;26.20;99.90
32749;DHT22;19119;52.474;13.710;2023-07-16T07:53:18;25.70;99.90
32749;DHT22;19119;52.474;13.710;2023-07-16T07:55:44;26.10;99.90
32749;DHT22;19119;52.474;13.710;2023-07-16T07:58:11;26.40;99.90
32749;DHT22;19119;52.474;13.710;2023-07-16T08:00:37;26.50;99.90
32749;DHT22;19119;52.474;13.710;2023-07-16T08:03:02;26.60;99.90
32749;DHT22;19119;52.474;13.710;2023-07-16T08:05:28;26.40;99.90
32749;DHT22;19119;52.474;13.710;2023-07-16T08:07:53;26.90;99.90
32749;DHT22;19119;52.474;13.710;2023-07-16T08:10:21;26.70;99.90
32749;DHT22;19119;52.474;13.710;2023-07-16T08:12:47;26.60;99.90
32749;DHT22;19119;52.474;13.710;2023-07-16T08:15:12;26.70;99.90
32749;DHT22;19119;52.474;13.710;2023-07-16T08:17:44;26.50;99.90
32749;DHT22;19119;52.474;13.710;2023-07-16T08:20:11;26.70;99.90
32749;DHT22;19119;52.474;13.710;2023-07-16T08:22:38;26.40;99.90
32749;DHT22;19119;52.474;13.710;2023-07-16T08:25:04;26.40;99.90
32749;DHT22;19119;52.474;13.710;2023-07-16T08:27:30;26.80;99.90
32749;DHT22;19119;52.474;13.710;2023-07-16T08:29:56;27.40;99.90
32749;DHT22;19119;52.474;13.710;2023-07-16T08:32:22;27.70;99.90
32749;DHT22;19119;52.474;13.710;2023-07-16T08:34:49;27.80;99.90
32749;DHT22;19119;52.474;13.710;2023-07-16T08:37:15;28.00;99.90
32749;DHT22;19119;52.474;13.710;2023-07-16T08:39:40;28.30;99.90
32749;DHT22;19119;52.474;13.710;2023-07-16T08:42:09;28.10;99.90
32749;DHT22;19119;52.474;13.710;2023-07-16T08:44:37;28.30;99.90
32749;DHT22;19119;52.474;13.710;2023-07-16T08:47:03;28.20;99.90
32749;DHT22;19119;52.474;13.710;2023-07-16T08:49:30;27.90;99.90
32749;DHT22;19119;52.474;13.710;2023-07-16T08:51:56;27.60;99.90
32749;DHT22;19119;52.474;13.710;2023-07-16T08:54:22;27.30;99.90
32749;DHT22;19119;52.474;13.710;2023-07-16T08:56:48;27.00;99.90
32749;DHT22;19119;52.474;13.710;2023-07-16T08:59:17;26.70;99.90
32749;DHT22;19119;52.474;13.710;2023-07-16T09:01:43;26.60;99.90
32749;DHT22;19119;52.474;13.710;2023-07-16T09:04:08;26.40;99.90
32749;DHT22;19119;52.474;13.710;2023-07-16T09:06:34;25.80;99.90
32749;DHT22;19119;52.474;13.710;2023-07-16T09:08:59;25.50;99.90
32749;DHT22;19119;52.474;13.710;2023-07-16T09:11:25;25.80;99.90
32749;DHT22;19119;52.474;13.710;2023-07-16T09:13:51;25.70;99.90
32749;DHT22;19119;52.474;13.710;2023-07-16T09:16:19;26.40;99.90
32749;DHT22;19119;52.474;13.710;2023-07-16T09:18:46;27.00;99.90
32749;DHT22;19119;52.474;13.710;2023-07-16T09:21:12;27.50;99.90
32749;DHT22;19119;52.474;13.710;2023-07-16T09:23:38;27.80;99.50
32749;DHT22;19119;52.474;13.710;2023-07-16T09:26:04;28.10;99.40
32749;DHT22;19119;52.474;13.710;2023-07-16T09:28:32;27.90;98.70
32749;DHT22;19119;52.474;13.710;2023-07-16T09:31:04;27.70;99.20
32749;DHT22;19119;52.474;13.710;2023-07-16T09:33:31;27.60;99.70
32749;DHT22;19119;52.474;13.710;2023-07-16T09:35:57;27.60;99.90
32749;DHT22;19119;52.474;13.710;2023-07-16T09:38:23;28.10;99.10
32749;DHT22;19119;52.474;13.710;2023-07-16T09:40:51;28.70;99.90
32749;DHT22;19119;52.474;13.710;2023-07-16T09:43:18;29.50;99.90
32749;DHT22;19119;52.474;13.710;2023-07-16T09:45:43;29.20;97.90
32749;DHT22;19119;52.474;13.710;2023-07-16T09:48:09;29.20;97.60
32749;DHT22;19119;52.474;13.710;2023-07-16T09:50:36;28.50;98.80
32749;DHT22;19119;52.474;13.710;2023-07-16T09:53:04;28.10;99.20
32749;DHT22;19119;52.474;13.710;2023-07-16T09:55:33;28.40;98.90
32749;DHT22;19119;52.474;13.710;2023-07-16T09:58:09;29.00;98.70
32749;DHT22;19119;52.474;13.710;2023-07-16T10:00:37;29.10;98.20
32749;DHT22;19119;52.474;13.710;2023-07-16T10:03:05;28.90;96.70
32749;DHT22;19119;52.474;13.710;2023-07-16T10:05:31;28.30;95.80
32749;DHT22;19119;52.474;13.710;2023-07-16T10:08:02;28.10;96.90
32749;DHT22;19119;52.474;13.710;2023-07-16T10:10:43;28.00;96.60
32749;DHT22;19119;52.474;13.710;2023-07-16T10:13:12;28.40;96.60
32749;DHT22;19119;52.474;13.710;2023-07-16T10:15:39;28.80;98.40
32749;DHT22;19119;52.474;13.710;2023-07-16T10:18:05;28.80;96.20
32749;DHT22;19119;52.474;13.710;2023-07-16T10:20:33;29.20;96.30
32749;DHT22;19119;52.474;13.710;2023-07-16T10:23:13;29.60;96.70
32749;DHT22;19119;52.474;13.710;2023-07-16T10:25:39;29.80;95.70
32749;DHT22;19119;52.474;13.710;2023-07-16T10:28:05;29.60;96.20
32749;DHT22;19119;52.474;13.710;2023-07-16T10:30:32;29.40;96.20
32749;DHT22;19119;52.474;13.710;2023-07-16T10:32:58;29.20;96.20
32749;DHT22;19119;52.474;13.710;2023-07-16T10:35:25;28.60;96.60
32749;DHT22;19119;52.474;13.710;2023-07-16T10:37:51;28.40;96.60
32749;DHT22;19119;52.474;13.710;2023-07-16T10:40:16;28.30;96.90
32749;DHT22;19119;52.474;13.710;2023-07-16T10:42:43;27.90;97.00
32749;DHT22;19119;52.474;13.710;2023-07-16T10:45:10;28.30;98.30
32749;DHT22;19119;52.474;13.710;2023-07-16T10:47:37;29.00;97.10
32749;DHT22;19119;52.474;13.710;2023-07-16T10:50:08;29.20;95.70
32749;DHT22;19119;52.474;13.710;2023-07-16T10:52:35;29.30;96.40
32749;DHT22;19119;52.474;13.710;2023-07-16T10:55:01;29.50;96.90
32749;DHT22;19119;52.474;13.710;2023-07-16T10:57:27;30.00;96.20
32749;DHT22;19119;52.474;13.710;2023-07-16T10:59:58;30.00;95.10
32749;DHT22;19119;52.474;13.710;2023-07-16T11:02:26;29.90;97.00
32749;DHT22;19119;52.474;13.710;2023-07-16T11:04:52;30.10;95.30
32749;DHT22;19119;52.474;13.710;2023-07-16T11:07:23;30.10;95.70
32749;DHT22;19119;52.474;13.710;2023-07-16T11:09:53;30.00;95.90
32749;DHT22;19119;52.474;13.710;2023-07-16T11:12:23;29.80;95.70
32749;DHT22;19119;52.474;13.710;2023-07-16T11:14:54;30.40;96.80
32749;DHT22;19119;52.474;13.710;2023-07-16T11:17:21;30.90;96.40
32749;DHT22;19119;52.474;13.710;2023-07-16T11:19:54;30.60;95.70
32749;DHT22;19119;52.474;13.710;2023-07-16T11:22:24;30.10;95.20
32749;DHT22;19119;52.474;13.710;2023-07-16T11:24:51;30.50;94.30
32749;DHT22;19119;52.474;13.710;2023-07-16T11:27:24;30.60;95.00
32749;DHT22;19119;52.474;13.710;2023-07-16T11:29:58;30.50;94.90
32749;DHT22;19119;52.474;13.710;2023-07-16T11:32:33;30.50;94.70
32749;DHT22;19119;52.474;13.710;2023-07-16T11:35:01;30.70;95.10
32749;DHT22;19119;52.474;13.710;2023-07-16T11:37:28;30.50;93.60
32749;DHT22;19119;52.474;13.710;2023-07-16T11:40:05;30.60;95.60
32749;DHT22;19119;52.474;13.710;2023-07-16T11:42:38;30.40;93.30
32749;DHT22;19119;52.474;13.710;2023-07-16T11:45:14;30.60;94.40
32749;DHT22;19119;52.474;13.710;2023-07-16T11:47:40;30.80;95.40
32749;DHT22;19119;52.474;13.710;2023-07-16T11:50:06;30.30;94.40
32749;DHT22;19119;52.474;13.710;2023-07-16T11:52:32;30.70;94.30
32749;DHT22;19119;52.474;13.710;2023-07-16T11:54:59;30.70;93.90
32749;DHT22;19119;52.474;13.710;2023-07-16T11:57:29;30.50;93.80
32749;DHT22;19119;52.474;13.710;2023-07-16T11:59:55;30.70;93.40
32749;DHT22;19119;52.474;13.710;2023-07-16T12:02:21;30.70;92.80
32749;DHT22;19119;52.474;13.710;2023-07-16T12:04:48;30.90;94.50
32749;DHT22;19119;52.474;13.710;2023-07-16T12:07:14;31.00;92.00
32749;DHT22;19119;52.474;13.710;2023-07-16T12:09:39;30.50;92.10
32749;DHT22;19119;52.474;13.710;2023-07-16T12:12:05;29.80;92.40
32749;DHT22;19119;52.474;13.710;2023-07-16T12:14:32;29.40;92.30
32749;DHT22;19119;52.474;13.710;2023-07-16T12:16:57;29.20;91.30
32749;DHT22;19119;52.474;13.710;2023-07-16T12:19:23;29.20;93.70
32749;DHT22;19119;52.474;13.710;2023-07-16T12:21:49;29.20;93.20
32749;DHT22;19119;52.474;13.710;2023-07-16T12:24:15;29.10;92.40
32749;DHT22;19119;52.474;13.710;2023-07-16T12:26:41;28.90;93.10
32749;DHT22;19119;52.474;13.710;2023-07-16T12:29:06;29.60;93.00
32749;DHT22;19119;52.474;13.710;2023-07-16T12:31:32;30.10;91.70
32749;DHT22;19119;52.474;13.710;2023-07-16T12:33:59;30.10;91.00
32749;DHT22;19119;52.474;13.710;2023-07-16T12:36:24;30.20;90.90
32749;DHT22;19119;52.474;13.710;2023-07-16T12:38:50;30.10;90.50
32749;DHT22;19119;52.474;13.710;2023-07-16T12:41:15;30.50;90.00
32749;DHT22;19119;52.474;13.710;2023-07-16T12:43:41;30.40;89.60
32749;DHT22;19119;52.474;13.710;2023-07-16T12:46:07;30.10;88.00
32749;DHT22;19119;52.474;13.710;2023-07-16T12:48:33;30.30;89.70
32749;DHT22;19119;52.474;13.710;2023-07-16T12:50:59;30.90;90.30
32749;DHT22;19119;52.474;13.710;2023-07-16T12:53:25;31.20;89.10
32749;DHT22;19119;52.474;13.710;2023-07-16T12:55:51;30.80;85.70
32749;DHT22;19119;52.474;13.710;2023-07-16T12:58:17;30.60;88.60
32749;DHT22;19119;52.474;13.710;2023-07-16T13:00:43;30.90;88.60
32749;DHT22;19119;52.474;13.710;2023-07-16T13:03:08;30.80;88.30
32749;DHT22;19119;52.474;13.710;2023-07-16T13:05:40;30.80;87.40
32749;DHT22;19119;52.474;13.710;2023-07-16T13:08:06;30.60;88.50
32749;DHT22;19119;52.474;13.710;2023-07-16T13:10:31;30.70;87.20
32749;DHT22;19119;52.474;13.710;2023-07-16T13:12:57;31.00;86.10
32749;DHT22;19119;52.474;13.710;2023-07-16T13:15:23;31.10;86.70
32749;DHT22;19119;52.474;13.710;2023-07-16T13:17:49;30.50;85.90
32749;DHT22;19119;52.474;13.710;2023-07-16T13:20:14;30.30;86.50
32749;DHT22;19119;52.474;13.710;2023-07-16T13:22:40;29.70;85.50
32749;DHT22;19119;52.474;13.710;2023-07-16T13:25:06;29.50;85.90
32749;DHT22;19119;52.474;13.710;2023-07-16T13:27:31;29.80;87.80
32749;DHT22;19119;52.474;13.710;2023-07-16T13:29:57;29.50;86.50
32749;DHT22;19119;52.474;13.710;2023-07-16T13:32:23;29.90;88.40
32749;DHT22;19119;52.474;13.710;2023-07-16T13:34:48;30.30;86.60
32749;DHT22;19119;52.474;13.710;2023-07-16T13:37:14;30.60;87.30
32749;DHT22;19119;52.474;13.710;2023-07-16T13:39:40;30.00;87.00
32749;DHT22;19119;52.474;13.710;2023-07-16T13:42:06;29.80;87.40
32749;DHT22;19119;52.474;13.710;2023-07-16T13:44:33;30.10;86.00
32749;DHT22;19119;52.474;13.710;2023-07-16T13:47:01;29.80;87.10
32749;DHT22;19119;52.474;13.710;2023-07-16T13:49:27;29.40;87.80
32749;DHT22;19119;52.474;13.710;2023-07-16T13:51:52;29.40;88.90
32749;DHT22;19119;52.474;13.710;2023-07-16T13:54:18;29.70;87.10
32749;DHT22;19119;52.474;13.710;2023-07-16T13:56:44;29.60;86.30
32749;DHT22;19119;52.474;13.710;2023-07-16T13:59:09;29.10;86.40
32749;DHT22;19119;52.474;13.710;2023-07-16T14:01:38;28.90;86.80
32749;DHT22;19119;52.474;13.710;2023-07-16T14:04:04;29.00;84.30
32749;DHT22;19119;52.474;13.710;2023-07-16T14:06:30;29.10;85.40
32749;DHT22;19119;52.474;13.710;2023-07-16T14:08:55;29.40;84.60
32749;DHT22;19119;52.474;13.710;2023-07-16T14:11:21;29.70;85.70
32749;DHT22;19119;52.474;13.710;2023-07-16T14:13:47;29.80;83.50
32749;DHT22;19119;52.474;13.710;2023-07-16T14:16:22;30.20;81.20
32749;DHT22;19119;52.474;13.710;2023-07-16T14:18:50;30.20;83.30
32749;DHT22;19119;52.474;13.710;2023-07-16T14:21:16;30.40;81.80
32749;DHT22;19119;52.474;13.710;2023-07-16T14:23:41;30.40;82.00
32749;DHT22;19119;52.474;13.710;2023-07-16T14:26:07;30.20;81.50
32749;DHT22;19119;52.474;13.710;2023-07-16T14:28:32;30.40;80.90
32749;DHT22;19119;52.474;13.710;2023-07-16T14:30:58;30.50;81.20
32749;DHT22;19119;52.474;13.710;2023-07-16T14:33:23;30.30;79.90
32749;DHT22;19119;52.474;13.710;2023-07-16T14:35:49;30.50;81.30
32749;DHT22;19119;52.474;13.710;2023-07-16T14:38:14;29.90;78.40
32749;DHT22;19119;52.474;13.710;2023-07-16T14:40:40;30.00;81.00
32749;DHT22;19119;52.474;13.710;2023-07-16T14:43:07;30.10;81.70
32749;DHT22;19119;52.474;13.710;2023-07-16T14:45:36;30.00;79.90
32749;DHT22;19119;52.474;13.710;2023-07-16T14:48:02;30.00;80.70
32749;DHT22;19119;52.474;13.710;2023-07-16T14:50:29;30.10;82.20
32749;DHT22;19119;52.474;13.710;2023-07-16T14:52:55;30.20;81.50
32749;DHT22;19119;52.474;13.710;2023-07-16T14:55:20;30.00;77.60
32749;DHT22;19119;52.474;13.710;2023-07-16T14:57:46;29.90;78.70
32749;DHT22;19119;52.474;13.710;2023-07-16T15:00:12;29.70;78.70
32749;DHT22;19119;52.474;13.710;2023-07-16T15:02:39;29.90;80.80
32749;DHT22;19119;52.474;13.710;2023-07-16T15:05:04;30.00;79.90
32749;DHT22;19119;52.474;13.710;2023-07-16T15:07:30;30.00;77.70
32749;DHT22;19119;52.474;13.710;2023-07-16T15:09:56;30.10;81.20